Beemer, Nebraska
Current Conditions -  °F | °C
As of 7:55 AM on Wednesday 28 Jan 2015 (Local Time) from KLCG Reporting Station
Clear Clear  
Wind Chill: 27°   Ceiling: Unl
Heat Index: 31°   Visibility: 10mi
Dew Point: 29°   Wind: 5mph
Humidity: 90%   Direction: 160°SSE
Pressure: 29.82"   Gusts: NA
Location:  41.93°N, 96.81°W
Report Text: KLCG 281355Z AUTO 16004KT 10SM CLR 00/M02 A2982 RMK AO2 T10041018
Loading
Personal Weather Stations






























Interactive Weather Map New forecast layout! Learn more

10-Day Weather Forecast

Advertisements
Track Severe Weather on mobile